Date,TemperatureHighF,TemperatureAvgF,TemperatureLowF,DewpointHighF,DewpointAvgF,DewpointLowF,HumidityHigh,HumidityAvg,HumidityLow,PressureMaxIn,PressureMinIn,WindSpeedMaxMPH,WindSpeedAvgMPH,GustSpeedMaxMPH,PrecipitationSumIn
2013-9-1,85.3,73.6,66.7,72.4,68.5,65.9,98,85,65,29.87,29.78,5,1,11,0.06
2013-9-2,86.6,73.3,67.0,72.2,67.6,59.4,99,84,54,29.94,29.81,3,0,8,0.00
2013-9-3,79.3,64.6,54.9,59.5,56.2,52.3,95,76,47,30.11,29.94,3,1,8,0.00
2013-9-4,87.0,65.4,52.7,63.1,57.2,52.2,99,78,40,30.19,30.10,2,0,6,0.00
2013-9-5,88.9,70.4,58.1,65.8,60.7,56.3,95,74,43,30.23,30.15,3,0,5,0.00
2013-9-6,87.8,67.2,56.3,60.2,55.1,50.5,88,67,36,30.28,30.12,1,0,5,0.00
2013-9-7,87.7,72.0,59.7,67.4,60.9,53.9,91,69,48,30.15,29.96,3,1,8,0.00
2013-9-8,91.6,75.0,64.8,72.9,67.7,63.3,96,80,48,30.05,29.93,2,0,5,0.01
2013-9-9,90.0,77.4,67.3,71.0,68.4,65.9,96,76,51,30.05,29.94,7,1,9,0.00
2013-9-10,94.9,79.8,71.2,74.2,70.6,66.8,89,75,47,30.16,30.03,5,1,11,0.00
2013-9-11,94.5,79.0,70.0,72.3,68.5,63.8,91,72,43,30.18,30.02,4,1,7,0.00
2013-9-12,80.3,73.3,62.1,70.9,67.9,56.5,95,84,65,30.06,29.89,3,1,9,0.32
2013-9-13,70.0,59.2,50.0,57.2,49.7,44.7,97,73,44,30.15,29.99,4,1,12,0.00
2013-9-14,77.4,55.2,43.5,52.3,45.1,41.8,98,73,32,30.24,30.08,2,0,4,0.00
2013-9-15,77.2,59.8,47.8,58.2,50.5,45.2,95,74,42,30.19,30.03,4,0,8,0.00
2013-9-16,74.2,62.4,54.1,58.3,55.9,51.3,93,80,56,30.33,30.10,2,0,6,0.00
2013-9-17,78.9,60.1,49.5,56.7,52.5,49.2,99,79,44,30.38,30.18,2,0,11,0.00
2013-9-18,82.2,66.3,56.5,65.5,58.3,53.1,94,77,52,30.21,30.06,3,0,5,0.00
2013-9-19,79.9,69.2,64.4,69.3,66.2,63.8,99,91,69,30.13,29.98,4,1,11,0.72
2013-9-20,82.6,72.4,67.4,71.7,67.5,65.4,97,86,64,30.01,29.83,5,2,11,0.07
2013-9-21,75.6,62.5,54.1,66.4,55.8,48.3,99,81,45,29.94,29.77,4,1,10,0.38
2013-9-22,72.5,54.9,46.1,51.5,47.8,45.3,99,79,44,30.06,29.94,2,0,8,3.00
2013-9-23,73.2,54.9,45.1,51.2,47.9,44.3,99,80,45,30.16,30.05,2,0,7,0.00
2013-9-24,78.3,57.9,46.4,59.2,51.4,45.9,98,81,52,30.14,29.92,2,0,5,1.49
2013-9-25,81.1,64.0,55.4,59.3,55.0,51.5,92,74,45,29.98,29.87,2,0,4,0.00
2013-9-26,82.3,61.4,49.6,60.1,54.6,49.4,99,81,46,30.12,29.98,2,0,5,0.00
2013-9-27,85.2,62.9,50.7,59.2,53.2,45.3,99,75,28,30.22,30.09,1,0,3,0.00
2013-9-28,83.1,65.4,50.7,59.5,55.3,50.4,99,74,44,30.22,30.06,3,0,8,0.00
2013-9-29,64.8,61.6,58.6,60.5,58.0,55.4,97,88,77,30.10,30.03,3,1,8,0.26
2013-9-30,71.4,63.5,58.2,63.4,61.1,57.4,98,92,74,30.06,29.97,3,0,6,0.00